sensor_id;sensor_type;location;lat;lon;timestamp;P1;durP1;ratioP1;P2;durP2;ratioP2
76733;SDS011;65660;53.288;14.666;2023-04-06T00:04:52;17.20;;;9.60;;
76733;SDS011;65660;53.288;14.666;2023-04-06T00:09:52;15.50;;;9.37;;
76733;SDS011;65660;53.288;14.666;2023-04-06T00:14:53;16.43;;;9.37;;
76733;SDS011;65660;53.288;14.666;2023-04-06T00:19:53;17.03;;;9.30;;
76733;SDS011;65660;53.288;14.666;2023-04-06T00:24:53;15.03;;;9.30;;
76733;SDS011;65660;53.288;14.666;2023-04-06T00:29:54;13.50;;;8.80;;
76733;SDS011;65660;53.288;14.666;2023-04-06T00:34:54;14.13;;;8.67;;
76733;SDS011;65660;53.288;14.666;2023-04-06T00:39:55;15.07;;;9.13;;
76733;SDS011;65660;53.288;14.666;2023-04-06T00:44:56;12.90;;;8.37;;
76733;SDS011;65660;53.288;14.666;2023-04-06T00:49:58;15.10;;;8.57;;
76733;SDS011;65660;53.288;14.666;2023-04-06T00:54:58;13.83;;;9.33;;
76733;SDS011;65660;53.288;14.666;2023-04-06T00:59:59;12.80;;;8.80;;
76733;SDS011;65660;53.288;14.666;2023-04-06T01:04:59;14.13;;;8.83;;
76733;SDS011;65660;53.288;14.666;2023-04-06T01:10:00;13.57;;;9.10;;
76733;SDS011;65660;53.288;14.666;2023-04-06T01:15:00;14.27;;;8.23;;
76733;SDS011;65660;53.288;14.666;2023-04-06T01:20:01;16.30;;;9.23;;
76733;SDS011;65660;53.288;14.666;2023-04-06T01:25:01;13.43;;;9.73;;
76733;SDS011;65660;53.288;14.666;2023-04-06T01:30:02;14.60;;;9.53;;
76733;SDS011;65660;53.288;14.666;2023-04-06T01:35:03;14.13;;;9.50;;
76733;SDS011;65660;53.288;14.666;2023-04-06T01:40:04;18.47;;;10.10;;
76733;SDS011;65660;53.288;14.666;2023-04-06T01:45:05;15.37;;;9.87;;
76733;SDS011;65660;53.288;14.666;2023-04-06T01:50:05;13.93;;;9.27;;
76733;SDS011;65660;53.288;14.666;2023-04-06T01:55:06;13.37;;;9.27;;
76733;SDS011;65660;53.288;14.666;2023-04-06T02:00:07;16.87;;;9.80;;
76733;SDS011;65660;53.288;14.666;2023-04-06T02:05:08;15.40;;;9.97;;
76733;SDS011;65660;53.288;14.666;2023-04-06T02:10:12;16.93;;;10.53;;
76733;SDS011;65660;53.288;14.666;2023-04-06T02:15:13;18.50;;;10.90;;
76733;SDS011;65660;53.288;14.666;2023-04-06T02:20:14;16.33;;;11.27;;
76733;SDS011;65660;53.288;14.666;2023-04-06T02:25:15;17.20;;;11.10;;
76733;SDS011;65660;53.288;14.666;2023-04-06T02:30:15;15.90;;;10.60;;
76733;SDS011;65660;53.288;14.666;2023-04-06T02:35:16;19.20;;;11.17;;
76733;SDS011;65660;53.288;14.666;2023-04-06T02:40:16;18.50;;;12.10;;
76733;SDS011;65660;53.288;14.666;2023-04-06T02:45:17;18.13;;;11.20;;
76733;SDS011;65660;53.288;14.666;2023-04-06T02:50:17;17.50;;;10.67;;
76733;SDS011;65660;53.288;14.666;2023-04-06T02:55:17;16.50;;;10.63;;
76733;SDS011;65660;53.288;14.666;2023-04-06T03:00:18;15.10;;;10.57;;
76733;SDS011;65660;53.288;14.666;2023-04-06T03:05:19;16.47;;;10.73;;
76733;SDS011;65660;53.288;14.666;2023-04-06T03:10:19;15.37;;;11.90;;
76733;SDS011;65660;53.288;14.666;2023-04-06T03:15:19;15.87;;;10.40;;
76733;SDS011;65660;53.288;14.666;2023-04-06T03:20:20;16.63;;;10.90;;
76733;SDS011;65660;53.288;14.666;2023-04-06T03:25:20;17.17;;;10.67;;
76733;SDS011;65660;53.288;14.666;2023-04-06T03:30:21;15.20;;;10.87;;
76733;SDS011;65660;53.288;14.666;2023-04-06T03:35:22;16.40;;;12.77;;
76733;SDS011;65660;53.288;14.666;2023-04-06T03:40:22;15.07;;;10.40;;
76733;SDS011;65660;53.288;14.666;2023-04-06T03:45:22;15.50;;;10.07;;
76733;SDS011;65660;53.288;14.666;2023-04-06T03:50:23;14.80;;;9.73;;
76733;SDS011;65660;53.288;14.666;2023-04-06T03:55:24;16.43;;;10.10;;
76733;SDS011;65660;53.288;14.666;2023-04-06T04:00:25;17.50;;;10.43;;
76733;SDS011;65660;53.288;14.666;2023-04-06T04:05:25;18.57;;;9.97;;
76733;SDS011;65660;53.288;14.666;2023-04-06T04:10:28;17.40;;;10.50;;
76733;SDS011;65660;53.288;14.666;2023-04-06T04:15:28;16.30;;;9.97;;
76733;SDS011;65660;53.288;14.666;2023-04-06T04:20:29;18.83;;;10.43;;
76733;SDS011;65660;53.288;14.666;2023-04-06T04:25:30;16.00;;;10.27;;
76733;SDS011;65660;53.288;14.666;2023-04-06T04:30:30;15.33;;;9.57;;
76733;SDS011;65660;53.288;14.666;2023-04-06T04:35:32;14.27;;;9.63;;
76733;SDS011;65660;53.288;14.666;2023-04-06T04:40:33;17.10;;;10.67;;
76733;SDS011;65660;53.288;14.666;2023-04-06T04:45:33;17.77;;;12.93;;
76733;SDS011;65660;53.288;14.666;2023-04-06T04:50:34;18.23;;;13.10;;
76733;SDS011;65660;53.288;14.666;2023-04-06T04:55:34;16.37;;;11.37;;
76733;SDS011;65660;53.288;14.666;2023-04-06T05:00:35;15.77;;;12.20;;
76733;SDS011;65660;53.288;14.666;2023-04-06T05:05:35;16.57;;;11.60;;
76733;SDS011;65660;53.288;14.666;2023-04-06T05:10:36;17.00;;;11.60;;
76733;SDS011;65660;53.288;14.666;2023-04-06T05:15:36;16.50;;;11.23;;
76733;SDS011;65660;53.288;14.666;2023-04-06T05:20:37;19.13;;;13.43;;
76733;SDS011;65660;53.288;14.666;2023-04-06T05:25:38;18.13;;;12.10;;
76733;SDS011;65660;53.288;14.666;2023-04-06T05:30:39;20.77;;;12.70;;
76733;SDS011;65660;53.288;14.666;2023-04-06T05:35:39;18.30;;;13.37;;
76733;SDS011;65660;53.288;14.666;2023-04-06T05:40:41;17.97;;;12.17;;
76733;SDS011;65660;53.288;14.666;2023-04-06T05:45:43;18.60;;;13.67;;
76733;SDS011;65660;53.288;14.666;2023-04-06T05:50:47;20.13;;;13.13;;
76733;SDS011;65660;53.288;14.666;2023-04-06T05:55:48;19.17;;;13.53;;
76733;SDS011;65660;53.288;14.666;2023-04-06T06:00:49;21.13;;;14.30;;
76733;SDS011;65660;53.288;14.666;2023-04-06T06:05:50;20.57;;;14.10;;
76733;SDS011;65660;53.288;14.666;2023-04-06T06:10:50;21.23;;;13.07;;
76733;SDS011;65660;53.288;14.666;2023-04-06T06:15:51;21.07;;;13.90;;
76733;SDS011;65660;53.288;14.666;2023-04-06T06:20:51;20.03;;;13.73;;
76733;SDS011;65660;53.288;14.666;2023-04-06T06:25:52;22.10;;;13.53;;
76733;SDS011;65660;53.288;14.666;2023-04-06T06:30:52;20.10;;;12.60;;
76733;SDS011;65660;53.288;14.666;2023-04-06T06:35:53;18.87;;;12.53;;
76733;SDS011;65660;53.288;14.666;2023-04-06T06:40:53;20.00;;;12.83;;
76733;SDS011;65660;53.288;14.666;2023-04-06T06:45:54;19.10;;;12.80;;
76733;SDS011;65660;53.288;14.666;2023-04-06T06:50:54;19.77;;;12.87;;
76733;SDS011;65660;53.288;14.666;2023-04-06T06:55:55;18.57;;;12.80;;
76733;SDS011;65660;53.288;14.666;2023-04-06T07:00:59;17.03;;;12.67;;
76733;SDS011;65660;53.288;14.666;2023-04-06T07:06:16;21.60;;;13.13;;
76733;SDS011;65660;53.288;14.666;2023-04-06T07:11:17;22.70;;;13.70;;
76733;SDS011;65660;53.288;14.666;2023-04-06T07:16:17;19.53;;;12.77;;
76733;SDS011;65660;53.288;14.666;2023-04-06T07:21:18;19.07;;;12.70;;
76733;SDS011;65660;53.288;14.666;2023-04-06T07:26:18;19.53;;;12.47;;
76733;SDS011;65660;53.288;14.666;2023-04-06T07:31:19;19.07;;;13.30;;
76733;SDS011;65660;53.288;14.666;2023-04-06T07:36:20;18.37;;;12.97;;
76733;SDS011;65660;53.288;14.666;2023-04-06T07:41:20;20.13;;;12.73;;
76733;SDS011;65660;53.288;14.666;2023-04-06T07:46:21;20.80;;;13.27;;
76733;SDS011;65660;53.288;14.666;2023-04-06T07:51:23;21.23;;;12.80;;
76733;SDS011;65660;53.288;14.666;2023-04-06T07:56:23;19.70;;;13.03;;
76733;SDS011;65660;53.288;14.666;2023-04-06T08:01:24;21.43;;;13.83;;
76733;SDS011;65660;53.288;14.666;2023-04-06T08:06:25;18.93;;;12.87;;
76733;SDS011;65660;53.288;14.666;2023-04-06T08:11:25;19.80;;;12.50;;
76733;SDS011;65660;53.288;14.666;2023-04-06T08:16:26;21.03;;;14.67;;
76733;SDS011;65660;53.288;14.666;2023-04-06T08:21:26;19.80;;;13.17;;
76733;SDS011;65660;53.288;14.666;2023-04-06T08:26:32;20.27;;;13.73;;
76733;SDS011;65660;53.288;14.666;2023-04-06T08:31:34;17.23;;;11.77;;
76733;SDS011;65660;53.288;14.666;2023-04-06T08:36:35;18.30;;;12.37;;
76733;SDS011;65660;53.288;14.666;2023-04-06T08:41:35;16.47;;;11.80;;
76733;SDS011;65660;53.288;14.666;2023-04-06T08:46:36;13.80;;;10.07;;
76733;SDS011;65660;53.288;14.666;2023-04-06T08:51:36;11.53;;;8.83;;
76733;SDS011;65660;53.288;14.666;2023-04-06T08:56:39;11.37;;;7.97;;
76733;SDS011;65660;53.288;14.666;2023-04-06T09:01:43;7.00;;;6.30;;
76733;SDS011;65660;53.288;14.666;2023-04-06T09:06:45;10.97;;;7.10;;
76733;SDS011;65660;53.288;14.666;2023-04-06T09:11:47;8.67;;;6.80;;
76733;SDS011;65660;53.288;14.666;2023-04-06T09:16:49;12.80;;;7.30;;
76733;SDS011;65660;53.288;14.666;2023-04-06T09:22:00;9.27;;;7.13;;
76733;SDS011;65660;53.288;14.666;2023-04-06T09:27:05;7.27;;;6.50;;
76733;SDS011;65660;53.288;14.666;2023-04-06T09:32:11;9.77;;;6.70;;
76733;SDS011;65660;53.288;14.666;2023-04-06T09:37:17;10.07;;;6.60;;
76733;SDS011;65660;53.288;14.666;2023-04-06T09:42:25;9.40;;;6.87;;
76733;SDS011;65660;53.288;14.666;2023-04-06T09:47:26;8.63;;;7.07;;
76733;SDS011;65660;53.288;14.666;2023-04-06T09:52:42;7.20;;;6.50;;
76733;SDS011;65660;53.288;14.666;2023-04-06T09:58:06;9.40;;;7.20;;
76733;SDS011;65660;53.288;14.666;2023-04-06T10:08:22;10.13;;;6.77;;
76733;SDS011;65660;53.288;14.666;2023-04-06T10:13:34;7.30;;;6.60;;
76733;SDS011;65660;53.288;14.666;2023-04-06T10:18:36;7.23;;;6.53;;
76733;SDS011;65660;53.288;14.666;2023-04-06T10:29:03;8.00;;;7.20;;
76733;SDS011;65660;53.288;14.666;2023-04-06T10:34:09;7.30;;;6.23;;
76733;SDS011;65660;53.288;14.666;2023-04-06T10:39:16;8.03;;;7.23;;
76733;SDS011;65660;53.288;14.666;2023-04-06T10:44:25;7.83;;;6.73;;
76733;SDS011;65660;53.288;14.666;2023-04-06T10:49:27;9.47;;;8.47;;
76733;SDS011;65660;53.288;14.666;2023-04-06T10:54:30;10.73;;;6.70;;
76733;SDS011;65660;53.288;14.666;2023-04-06T10:59:31;7.97;;;6.77;;
76733;SDS011;65660;53.288;14.666;2023-04-06T11:04:33;10.77;;;9.77;;
76733;SDS011;65660;53.288;14.666;2023-04-06T11:09:36;10.30;;;9.30;;
76733;SDS011;65660;53.288;14.666;2023-04-06T11:14:36;9.00;;;7.27;;
76733;SDS011;65660;53.288;14.666;2023-04-06T11:19:39;8.53;;;7.60;;
76733;SDS011;65660;53.288;14.666;2023-04-06T11:24:42;8.10;;;7.30;;
76733;SDS011;65660;53.288;14.666;2023-04-06T11:29:44;8.00;;;7.20;;
76733;SDS011;65660;53.288;14.666;2023-04-06T11:34:45;8.63;;;7.63;;
76733;SDS011;65660;53.288;14.666;2023-04-06T11:39:52;8.90;;;8.00;;
76733;SDS011;65660;53.288;14.666;2023-04-06T11:45:00;9.30;;;6.73;;
76733;SDS011;65660;53.288;14.666;2023-04-06T11:50:06;8.50;;;6.63;;
76733;SDS011;65660;53.288;14.666;2023-04-06T11:55:14;7.47;;;6.63;;
76733;SDS011;65660;53.288;14.666;2023-04-06T12:00:16;8.83;;;6.87;;
76733;SDS011;65660;53.288;14.666;2023-04-06T12:05:19;7.00;;;6.33;;
76733;SDS011;65660;53.288;14.666;2023-04-06T12:10:20;9.03;;;6.50;;
76733;SDS011;65660;53.288;14.666;2023-04-06T12:15:25;8.17;;;7.33;;
76733;SDS011;65660;53.288;14.666;2023-04-06T12:20:26;8.83;;;7.93;;
76733;SDS011;65660;53.288;14.666;2023-04-06T12:25:29;7.13;;;6.43;;
76733;SDS011;65660;53.288;14.666;2023-04-06T12:30:37;9.13;;;7.20;;
76733;SDS011;65660;53.288;14.666;2023-04-06T12:35:49;8.67;;;7.10;;
76733;SDS011;65660;53.288;14.666;2023-04-06T12:40:51;9.97;;;7.37;;
76733;SDS011;65660;53.288;14.666;2023-04-06T12:45:51;8.57;;;7.20;;
76733;SDS011;65660;53.288;14.666;2023-04-06T12:50:59;7.37;;;6.67;;
76733;SDS011;65660;53.288;14.666;2023-04-06T12:56:01;8.27;;;7.37;;
76733;SDS011;65660;53.288;14.666;2023-04-06T13:01:05;8.30;;;7.23;;
76733;SDS011;65660;53.288;14.666;2023-04-06T13:06:06;7.90;;;7.10;;
76733;SDS011;65660;53.288;14.666;2023-04-06T13:11:07;8.00;;;7.20;;
76733;SDS011;65660;53.288;14.666;2023-04-06T13:16:08;9.80;;;7.73;;
76733;SDS011;65660;53.288;14.666;2023-04-06T13:21:12;9.43;;;8.53;;
76733;SDS011;65660;53.288;14.666;2023-04-06T13:26:13;8.80;;;7.20;;
76733;SDS011;65660;53.288;14.666;2023-04-06T13:31:14;9.43;;;8.20;;
76733;SDS011;65660;53.288;14.666;2023-04-06T13:36:14;8.00;;;7.07;;
76733;SDS011;65660;53.288;14.666;2023-04-06T13:41:21;8.27;;;7.03;;
76733;SDS011;65660;53.288;14.666;2023-04-06T13:46:24;10.50;;;9.60;;
76733;SDS011;65660;53.288;14.666;2023-04-06T13:51:24;9.97;;;8.20;;
76733;SDS011;65660;53.288;14.666;2023-04-06T13:56:25;11.50;;;10.40;;
76733;SDS011;65660;53.288;14.666;2023-04-06T14:01:25;8.03;;;7.17;;
76733;SDS011;65660;53.288;14.666;2023-04-06T14:06:26;7.50;;;6.70;;
76733;SDS011;65660;53.288;14.666;2023-04-06T14:11:26;8.30;;;7.60;;
76733;SDS011;65660;53.288;14.666;2023-04-06T14:16:27;9.00;;;8.20;;
76733;SDS011;65660;53.288;14.666;2023-04-06T14:21:27;8.97;;;8.03;;
76733;SDS011;65660;53.288;14.666;2023-04-06T14:26:28;8.87;;;8.00;;
76733;SDS011;65660;53.288;14.666;2023-04-06T14:31:28;8.50;;;7.70;;
76733;SDS011;65660;53.288;14.666;2023-04-06T14:36:30;10.30;;;9.30;;
76733;SDS011;65660;53.288;14.666;2023-04-06T14:41:32;9.80;;;8.90;;
76733;SDS011;65660;53.288;14.666;2023-04-06T14:46:33;8.23;;;7.20;;
76733;SDS011;65660;53.288;14.666;2023-04-06T14:51:34;9.37;;;7.53;;
76733;SDS011;65660;53.288;14.666;2023-04-06T14:56:35;8.77;;;7.90;;
76733;SDS011;65660;53.288;14.666;2023-04-06T15:01:36;9.53;;;8.63;;
76733;SDS011;65660;53.288;14.666;2023-04-06T15:06:37;8.13;;;7.33;;
76733;SDS011;65660;53.288;14.666;2023-04-06T15:11:37;9.90;;;9.00;;
76733;SDS011;65660;53.288;14.666;2023-04-06T15:16:38;9.87;;;8.80;;
76733;SDS011;65660;53.288;14.666;2023-04-06T15:21:42;8.17;;;7.33;;
76733;SDS011;65660;53.288;14.666;2023-04-06T15:26:43;9.13;;;7.63;;
76733;SDS011;65660;53.288;14.666;2023-04-06T15:31:43;7.73;;;6.90;;
76733;SDS011;65660;53.288;14.666;2023-04-06T15:36:44;8.27;;;7.27;;
76733;SDS011;65660;53.288;14.666;2023-04-06T15:41:45;7.70;;;7.00;;
76733;SDS011;65660;53.288;14.666;2023-04-06T15:46:45;8.07;;;7.27;;
76733;SDS011;65660;53.288;14.666;2023-04-06T15:51:46;9.60;;;8.00;;
76733;SDS011;65660;53.288;14.666;2023-04-06T15:56:48;9.20;;;8.33;;
76733;SDS011;65660;53.288;14.666;2023-04-06T16:01:48;10.30;;;9.30;;
76733;SDS011;65660;53.288;14.666;2023-04-06T16:06:49;9.00;;;7.33;;
76733;SDS011;65660;53.288;14.666;2023-04-06T16:11:49;9.67;;;8.50;;
76733;SDS011;65660;53.288;14.666;2023-04-06T16:16:50;9.67;;;7.53;;
76733;SDS011;65660;53.288;14.666;2023-04-06T16:21:50;11.73;;;8.47;;
76733;SDS011;65660;53.288;14.666;2023-04-06T16:26:51;8.37;;;7.43;;
76733;SDS011;65660;53.288;14.666;2023-04-06T16:31:51;9.20;;;7.30;;
76733;SDS011;65660;53.288;14.666;2023-04-06T16:36:52;8.27;;;7.20;;
76733;SDS011;65660;53.288;14.666;2023-04-06T16:41:56;9.30;;;7.50;;
76733;SDS011;65660;53.288;14.666;2023-04-06T16:46:57;7.77;;;6.90;;
76733;SDS011;65660;53.288;14.666;2023-04-06T16:51:57;8.83;;;7.50;;
76733;SDS011;65660;53.288;14.666;2023-04-06T16:56:58;8.97;;;7.10;;
76733;SDS011;65660;53.288;14.666;2023-04-06T17:01:58;7.33;;;6.47;;
76733;SDS011;65660;53.288;14.666;2023-04-06T17:06:59;8.67;;;7.80;;
76733;SDS011;65660;53.288;14.666;2023-04-06T17:11:59;9.80;;;8.30;;
76733;SDS011;65660;53.288;14.666;2023-04-06T17:16:59;9.03;;;8.10;;
76733;SDS011;65660;53.288;14.666;2023-04-06T17:22:00;10.50;;;9.50;;
76733;SDS011;65660;53.288;14.666;2023-04-06T17:27:00;11.07;;;10.13;;
76733;SDS011;65660;53.288;14.666;2023-04-06T17:32:01;10.40;;;9.30;;
76733;SDS011;65660;53.288;14.666;2023-04-06T17:37:01;12.13;;;10.47;;
76733;SDS011;65660;53.288;14.666;2023-04-06T17:42:02;10.80;;;9.73;;
76733;SDS011;65660;53.288;14.666;2023-04-06T17:47:03;11.40;;;9.77;;
76733;SDS011;65660;53.288;14.666;2023-04-06T17:52:03;11.57;;;8.47;;
76733;SDS011;65660;53.288;14.666;2023-04-06T17:57:05;9.57;;;8.07;;
76733;SDS011;65660;53.288;14.666;2023-04-06T18:02:06;9.20;;;8.30;;
76733;SDS011;65660;53.288;14.666;2023-04-06T18:07:06;9.20;;;8.10;;
76733;SDS011;65660;53.288;14.666;2023-04-06T18:12:07;9.93;;;7.77;;
76733;SDS011;65660;53.288;14.666;2023-04-06T18:17:07;9.07;;;7.93;;
76733;SDS011;65660;53.288;14.666;2023-04-06T18:22:08;8.70;;;7.80;;
76733;SDS011;65660;53.288;14.666;2023-04-06T18:27:09;12.33;;;7.67;;
76733;SDS011;65660;53.288;14.666;2023-04-06T18:32:10;8.90;;;7.47;;
76733;SDS011;65660;53.288;14.666;2023-04-06T18:37:11;10.33;;;7.70;;
76733;SDS011;65660;53.288;14.666;2023-04-06T18:42:11;8.73;;;7.20;;
76733;SDS011;65660;53.288;14.666;2023-04-06T18:47:12;8.80;;;7.90;;
76733;SDS011;65660;53.288;14.666;2023-04-06T18:52:12;9.50;;;7.90;;
76733;SDS011;65660;53.288;14.666;2023-04-06T18:57:13;9.77;;;8.27;;
76733;SDS011;65660;53.288;14.666;2023-04-06T19:02:13;9.47;;;8.23;;
76733;SDS011;65660;53.288;14.666;2023-04-06T19:07:14;11.40;;;8.43;;
76733;SDS011;65660;53.288;14.666;2023-04-06T19:12:14;11.03;;;8.50;;
76733;SDS011;65660;53.288;14.666;2023-04-06T19:17:15;12.77;;;9.00;;
76733;SDS011;65660;53.288;14.666;2023-04-06T19:22:15;12.23;;;9.47;;
76733;SDS011;65660;53.288;14.666;2023-04-06T19:27:18;11.80;;;8.93;;
76733;SDS011;65660;53.288;14.666;2023-04-06T19:32:19;12.97;;;9.17;;
76733;SDS011;65660;53.288;14.666;2023-04-06T19:37:21;11.87;;;9.00;;
76733;SDS011;65660;53.288;14.666;2023-04-06T19:42:22;10.43;;;8.60;;
76733;SDS011;65660;53.288;14.666;2023-04-06T19:47:22;10.00;;;8.40;;
76733;SDS011;65660;53.288;14.666;2023-04-06T19:52:23;10.53;;;8.33;;
76733;SDS011;65660;53.288;14.666;2023-04-06T19:57:23;17.87;;;11.27;;
76733;SDS011;65660;53.288;14.666;2023-04-06T20:02:24;21.80;;;12.87;;
76733;SDS011;65660;53.288;14.666;2023-04-06T20:07:24;26.47;;;14.23;;
76733;SDS011;65660;53.288;14.666;2023-04-06T20:12:25;25.53;;;14.00;;
76733;SDS011;65660;53.288;14.666;2023-04-06T20:17:25;20.30;;;11.60;;
76733;SDS011;65660;53.288;14.666;2023-04-06T20:22:26;17.77;;;10.90;;
76733;SDS011;65660;53.288;14.666;2023-04-06T20:27:26;19.27;;;11.57;;
76733;SDS011;65660;53.288;14.666;2023-04-06T20:32:27;30.10;;;13.87;;
76733;SDS011;65660;53.288;14.666;2023-04-06T20:37:27;18.90;;;10.93;;
76733;SDS011;65660;53.288;14.666;2023-04-06T20:42:27;17.37;;;10.43;;
76733;SDS011;65660;53.288;14.666;2023-04-06T20:47:28;15.47;;;10.37;;
76733;SDS011;65660;53.288;14.666;2023-04-06T20:52:28;13.17;;;8.23;;
76733;SDS011;65660;53.288;14.666;2023-04-06T20:57:29;13.07;;;11.07;;
76733;SDS011;65660;53.288;14.666;2023-04-06T21:02:29;13.73;;;11.00;;
76733;SDS011;65660;53.288;14.666;2023-04-06T21:07:30;11.40;;;8.40;;
76733;SDS011;65660;53.288;14.666;2023-04-06T21:12:30;11.93;;;10.73;;
76733;SDS011;65660;53.288;14.666;2023-04-06T21:17:31;10.10;;;7.97;;
76733;SDS011;65660;53.288;14.666;2023-04-06T21:22:31;9.80;;;7.37;;
76733;SDS011;65660;53.288;14.666;2023-04-06T21:27:31;11.17;;;8.50;;
76733;SDS011;65660;53.288;14.666;2023-04-06T21:32:33;12.57;;;7.87;;
76733;SDS011;65660;53.288;14.666;2023-04-06T21:37:33;11.33;;;7.70;;
76733;SDS011;65660;53.288;14.666;2023-04-06T21:42:34;12.83;;;7.83;;
76733;SDS011;65660;53.288;14.666;2023-04-06T21:47:34;11.00;;;7.80;;
76733;SDS011;65660;53.288;14.666;2023-04-06T21:52:34;10.43;;;7.53;;
76733;SDS011;65660;53.288;14.666;2023-04-06T21:57:35;12.13;;;7.77;;
76733;SDS011;65660;53.288;14.666;2023-04-06T22:02:36;9.00;;;7.43;;
76733;SDS011;65660;53.288;14.666;2023-04-06T22:07:36;9.27;;;7.70;;
76733;SDS011;65660;53.288;14.666;2023-04-06T22:12:37;10.23;;;7.30;;
76733;SDS011;65660;53.288;14.666;2023-04-06T22:17:37;10.43;;;7.30;;
76733;SDS011;65660;53.288;14.666;2023-04-06T22:22:38;11.03;;;7.67;;
76733;SDS011;65660;53.288;14.666;2023-04-06T22:27:38;9.53;;;7.57;;
76733;SDS011;65660;53.288;14.666;2023-04-06T22:32:39;11.40;;;8.73;;
76733;SDS011;65660;53.288;14.666;2023-04-06T22:37:42;11.00;;;9.80;;
76733;SDS011;65660;53.288;14.666;2023-04-06T22:42:43;10.07;;;7.30;;
76733;SDS011;65660;53.288;14.666;2023-04-06T22:47:43;11.37;;;8.00;;
76733;SDS011;65660;53.288;14.666;2023-04-06T22:52:44;11.27;;;7.40;;
76733;SDS011;65660;53.288;14.666;2023-04-06T22:57:44;11.37;;;7.13;;
76733;SDS011;65660;53.288;14.666;2023-04-06T23:02:45;10.67;;;7.40;;
76733;SDS011;65660;53.288;14.666;2023-04-06T23:07:45;10.23;;;7.43;;
76733;SDS011;65660;53.288;14.666;2023-04-06T23:12:46;9.40;;;7.03;;
76733;SDS011;65660;53.288;14.666;2023-04-06T23:17:46;10.93;;;6.97;;
76733;SDS011;65660;53.288;14.666;2023-04-06T23:22:47;12.07;;;7.03;;
76733;SDS011;65660;53.288;14.666;2023-04-06T23:27:47;8.70;;;6.87;;
76733;SDS011;65660;53.288;14.666;2023-04-06T23:32:47;8.57;;;6.87;;
76733;SDS011;65660;53.288;14.666;2023-04-06T23:37:48;11.67;;;7.23;;
76733;SDS011;65660;53.288;14.666;2023-04-06T23:42:48;9.57;;;6.90;;
76733;SDS011;65660;53.288;14.666;2023-04-06T23:47:49;11.70;;;7.60;;
76733;SDS011;65660;53.288;14.666;2023-04-06T23:52:49;10.83;;;7.60;;
76733;SDS011;65660;53.288;14.666;2023-04-06T23:57:50;10.40;;;7.23;;
